Terminal Aerodrome Forecast
Issued by NWS

Home | Current Version | Previous Version | Text Only | Print | Product List | Glossary On
Versions: 1 2 3 4 5 6 7 8 9 10 11 12 13 14 15 16 17 18 19 20 21
000
FTUS43 KDVN 222000 AAB
TAFCID
TAF AMD
KCID 222045Z 2221/2318 30010KT P6SM VCTS BKN035CB
     FM230000 31009KT P6SM BKN040
     FM230200 34008KT P6SM SCT050
     FM231400 04008KT P6SM SCT250=

USA.gov is the U.S. government's official web portal to all federal, state and local government web resources and services.